Time;durP1;ratioP1;P1;durP2;ratioP2;P2;SDS_P1;SDS_P2;PMS_P1;PMS_P2;Temp;Humidity;BMP_temperature;BMP_pressure;BME280_temperature;BME280_humidity;BME280_pressure;Samples;Min_cycle;Max_cycle;Signal;HPM_P1;HPM_P2
2022/04/21 00:00:43;;;;;;;73.02;30.60;;;;;;;8.04;90.64;99834.13;1737405;82;25629;-69
2022/04/21 00:03:10;;;;;;;55.43;28.90;;;;;;;8.03;90.72;99831.17;1737463;82;27519;-70
2022/04/21 00:05:36;;;;;;;66.00;30.90;;;;;;;8.04;90.75;99830.65;1736765;82;25962;-70
2022/04/21 00:08:04;;;;;;;62.67;30.72;;;;;;;8.05;90.75;99838.95;1737709;82;25393;-70
2022/04/21 00:10:30;;;;;;;65.80;31.45;;;;;;;8.04;90.75;99822.02;1737055;82;25711;-70
2022/04/21 00:12:57;;;;;;;72.60;31.48;;;;;;;8.05;90.75;99828.19;1737949;82;25658;-70
2022/04/21 00:15:25;;;;;;;68.05;30.62;;;;;;;8.04;90.78;99829.30;1737879;82;28086;-70
2022/04/21 00:17:51;;;;;;;65.30;31.42;;;;;;;8.05;90.83;99834.92;1737849;82;25481;-70
2022/04/21 00:20:17;;;;;;;71.28;31.30;;;;;;;8.04;90.90;99828.74;1737888;82;29595;-71
2022/04/21 00:25:29;;;;;;;61.83;30.55;;;;;;;8.04;90.92;99831.44;1737922;82;25405;-72
2022/04/21 00:27:57;;;;;;;60.48;29.23;;;;;;;8.03;90.96;99831.17;1737884;82;27627;-72
2022/04/21 00:30:24;;;;;;;61.13;28.98;;;;;;;8.03;91.05;99833.09;1737734;82;25508;-71
2022/04/21 00:32:50;;;;;;;52.53;27.22;;;;;;;8.02;91.12;99826.13;1737881;82;25486;-72
2022/04/21 00:35:17;;;;;;;55.45;27.85;;;;;;;8.04;91.20;99829.30;1737798;82;25459;-72
2022/04/21 00:37:47;;;;;;;57.33;28.98;;;;;;;8.03;91.19;99823.09;1738013;82;25504;-72
2022/04/21 00:40:15;;;;;;;62.98;28.98;;;;;;;8.04;91.26;99819.88;1737546;82;28441;-70
2022/04/21 00:42:43;;;;;;;51.02;27.77;;;;;;;8.03;91.36;99817.70;1737768;82;25717;-71
2022/04/21 00:45:12;;;;;;;61.20;28.32;;;;;;;8.03;91.37;99816.36;1737902;82;25588;-70
2022/04/21 00:47:43;;;;;;;55.38;28.30;;;;;;;8.04;91.41;99821.22;1737841;82;25670;-73
2022/04/21 00:50:18;;;;;;;57.43;29.35;;;;;;;8.05;91.42;99814.72;1738006;82;25599;-70
2022/04/21 00:52:46;;;;;;;57.93;27.98;;;;;;;8.04;91.51;99815.28;1737977;82;28337;-71
2022/04/21 00:55:14;;;;;;;53.28;27.62;;;;;;;8.05;91.50;99810.67;1737782;82;25869;-71
2022/04/21 00:57:43;;;;;;;49.58;25.95;;;;;;;8.06;91.50;99810.94;1737865;82;25446;-71
2022/04/21 01:00:12;;;;;;;59.13;27.80;;;;;;;8.06;91.58;99812.28;1737844;82;25465;-71
2022/04/21 01:02:46;;;;;;;47.93;26.07;;;;;;;8.08;91.63;99816.81;1734943;82;31013;-71
2022/04/21 01:05:16;;;;;;;53.17;27.15;;;;;;;8.07;91.65;99816.58;1726459;83;27005;-71
2022/04/21 01:07:42;;;;;;;45.90;25.55;;;;;;;8.09;91.75;99822.98;1726077;83;25635;-71
2022/04/21 01:10:11;;;;;;;48.90;26.00;;;;;;;8.10;91.82;99821.34;1726384;82;25436;-71
2022/04/21 01:12:39;;;;;;;51.20;26.30;;;;;;;8.11;91.79;99826.98;1726318;83;25600;-71
2022/04/21 01:15:06;;;;;;;49.63;24.87;;;;;;;8.13;91.78;99832.07;1726400;83;25488;-71
2022/04/21 01:17:36;;;;;;;51.68;25.20;;;;;;;8.14;91.84;99829.61;1726382;83;28175;-71
2022/04/21 01:20:05;;;;;;;;;;;;;;;8.15;91.83;99827.17;1728864;83;25579;-71
2022/04/21 01:22:31;;;;;;;43.52;23.10;;;;;;;8.15;91.93;99825.27;1726639;82;25393;-69
2022/04/21 01:24:58;;;;;;;43.15;24.25;;;;;;;8.15;91.96;99823.92;1726391;82;25652;-69
2022/04/21 01:27:29;;;;;;;44.83;24.20;;;;;;;8.16;91.95;99820.69;1726478;82;25473;-71
2022/04/21 01:29:56;;;;;;;39.50;22.40;;;;;;;8.17;91.96;99820.92;1726476;83;28148;-69
2022/04/21 01:32:22;;;;;;;39.35;21.93;;;;;;;8.16;91.95;99805.31;1726267;82;25641;-69
2022/04/21 01:34:48;;;;;;;39.70;21.85;;;;;;;8.18;91.97;99802.32;1726365;82;30101;-71
2022/04/21 01:42:43;;;;;;;36.30;20.62;;;;;;;8.18;91.90;99796.94;1726324;83;28086;-71
2022/04/21 01:45:09;;;;;;;39.63;22.60;;;;;;;8.18;91.98;99793.68;1726301;82;25570;-71
2022/04/21 01:47:35;;;;;;;38.10;21.97;;;;;;;8.19;92.00;99797.98;1726360;82;25424;-71
2022/04/21 01:50:07;;;;;;;33.65;20.92;;;;;;;8.20;91.95;99793.38;1726309;83;34795;-70
2022/04/21 01:52:30;;;;;;;34.65;20.27;;;;;;;8.20;92.02;99790.69;1725560;83;25641;-70
2022/04/21 01:54:57;;;;;;;38.42;21.23;;;;;;;8.20;92.05;99791.47;1726304;83;27545;-70
2022/04/21 01:57:23;;;;;;;35.60;19.52;;;;;;;8.20;92.08;99783.39;1726358;83;25551;-70
2022/04/21 01:59:51;;;;;;;32.45;18.98;;;;;;;8.20;92.04;99781.25;1726399;83;30104;-70
2022/04/21 02:02:17;;;;;;;26.27;16.97;;;;;;;8.20;92.05;99782.60;1726341;83;25501;-70
2022/04/21 02:04:43;;;;;;;29.82;18.15;;;;;;;8.20;92.05;99778.00;1726380;82;25491;-70
2022/04/21 02:07:09;;;;;;;28.52;17.90;;;;;;;8.20;92.10;99775.30;1726494;83;27502;-71
2022/04/21 02:09:35;;;;;;;27.50;16.87;;;;;;;8.21;92.08;99774.78;1726420;83;33052;-71
2022/04/21 02:12:02;;;;;;;25.45;16.77;;;;;;;8.20;92.13;99773.95;1726578;82;25577;-71
2022/04/21 02:14:28;;;;;;;24.32;15.25;;;;;;;8.21;92.11;99777.47;1726491;83;25528;-71
2022/04/21 02:16:54;;;;;;;22.17;14.47;;;;;;;8.21;92.13;99774.78;1726571;82;32279;-70
2022/04/21 02:19:20;;;;;;;22.50;14.47;;;;;;;8.21;92.14;99768.04;1726494;83;27558;-71
2022/04/21 02:21:46;;;;;;;23.38;14.15;;;;;;;8.21;92.15;99770.73;1726403;83;32756;-70
2022/04/21 02:24:12;;;;;;;22.05;14.28;;;;;;;8.20;92.15;99765.88;1726544;83;29645;-69
2022/04/21 02:26:38;;;;;;;23.30;14.10;;;;;;;8.21;92.16;99765.34;1726499;83;26065;-69
2022/04/21 02:29:04;;;;;;;27.65;14.90;;;;;;;8.21;92.19;99762.66;1726583;83;32295;-69
2022/04/21 02:31:30;;;;;;;18.50;12.78;;;;;;;8.21;92.15;99763.44;1726529;83;28163;-69
2022/04/21 02:33:56;;;;;;;19.00;11.95;;;;;;;8.20;92.12;99759.14;1726393;83;25391;-69
2022/04/21 02:36:22;;;;;;;17.95;12.37;;;;;;;8.21;92.12;99755.92;1726518;83;25558;-69
2022/04/21 02:38:48;;;;;;;18.67;12.68;;;;;;;8.20;92.19;99756.45;1726511;82;25591;-69
2022/04/21 02:41:15;;;;;;;18.42;13.20;;;;;;;8.22;92.25;99753.45;1726555;83;32303;-69
2022/04/21 02:43:41;;;;;;;15.88;11.68;;;;;;;8.22;92.22;99758.31;1726405;83;27315;-69
2022/04/21 02:46:07;;;;;;;16.65;11.90;;;;;;;8.22;92.17;99754.27;1726407;83;33085;-69
2022/04/21 02:48:34;;;;;;;14.80;11.30;;;;;;;8.22;92.10;99762.88;1726408;83;29654;-69
2022/04/21 02:51:00;;;;;;;15.38;10.60;;;;;;;8.22;92.16;99758.84;1726475;83;26479;-69
2022/04/21 02:59:00;;;;;;;14.45;10.60;;;;;;;8.21;92.24;99751.31;1726392;83;25479;-69
2022/04/21 03:01:24;;;;;;;14.65;10.38;;;;;;;8.21;92.29;99755.36;1725924;82;25417;-69
2022/04/21 03:03:50;;;;;;;15.50;10.93;;;;;;;8.22;92.33;99754.27;1726294;83;27842;-69
2022/04/21 03:06:17;;;;;;;15.25;10.75;;;;;;;8.21;92.41;99756.70;1726448;83;32407;-69
2022/04/21 03:08:43;;;;;;;17.05;11.22;;;;;;;8.22;92.33;99758.84;1726452;83;27460;-69
2022/04/21 03:11:09;;;;;;;15.55;10.53;;;;;;;8.03;92.36;99732.87;1726328;83;33233;-69
2022/04/21 03:13:36;;;;;;;16.10;10.98;;;;;;;8.22;92.40;99759.66;1726437;82;25428;-69
2022/04/21 03:16:01;;;;;;;15.83;11.50;;;;;;;8.20;92.36;99757.00;1726360;83;34829;-69
2022/04/21 03:18:27;;;;;;;14.63;11.12;;;;;;;8.22;92.40;99753.45;1726452;83;32297;-69
2022/04/21 03:26:23;;;;;;;18.52;13.18;;;;;;;8.21;92.44;99763.44;1726458;83;25653;-68
2022/04/21 03:28:49;;;;;;;21.87;14.68;;;;;;;8.21;92.45;99757.27;1726443;83;27689;-68
2022/04/21 03:31:15;;;;;;;17.20;13.58;;;;;;;8.23;92.46;99759.09;1726568;83;32331;-70
2022/04/21 03:33:41;;;;;;;20.70;15.08;;;;;;;8.22;92.46;99749.41;1726521;82;28188;-70
2022/04/21 03:36:07;;;;;;;19.95;14.43;;;;;;;8.22;92.46;99749.41;1726410;83;25556;-70
2022/04/21 03:38:37;;;;;;;20.02;14.95;;;;;;;8.22;92.41;99756.96;1726509;83;29579;-70
2022/04/21 03:41:01;;;;;;;20.88;15.10;;;;;;;8.21;92.41;99751.88;1726017;83;25671;-70
2022/04/21 03:43:27;;;;;;;20.52;14.93;;;;;;;8.22;92.43;99758.31;1726392;83;25402;-70
2022/04/21 03:45:53;;;;;;;20.50;16.00;;;;;;;8.22;92.49;99752.92;1726530;82;27413;-70
2022/04/21 03:48:19;;;;;;;23.45;17.45;;;;;;;8.23;92.46;99755.84;1726380;82;32810;-70
2022/04/21 03:50:45;;;;;;;22.02;16.62;;;;;;;8.25;92.43;99759.58;1726600;83;29646;-70
2022/04/21 03:53:11;;;;;;;20.70;16.12;;;;;;;8.24;92.43;99760.70;1726375;83;34921;-70
2022/04/21 03:55:37;;;;;;;24.35;16.57;;;;;;;8.26;92.48;99759.02;1726534;83;32381;-70
2022/04/21 03:58:03;;;;;;;23.75;16.85;;;;;;;8.26;92.45;99756.33;1726430;82;28178;-70
2022/04/21 04:00:30;;;;;;;23.70;16.70;;;;;;;8.27;92.33;99755.23;1726386;83;25491;-70
2022/04/21 04:02:56;;;;;;;23.85;16.60;;;;;;;8.27;92.30;99753.89;1726303;83;25484;-70
2022/04/21 04:05:23;;;;;;;23.67;17.57;;;;;;;8.27;92.28;99757.37;1726398;83;34739;-70
2022/04/21 04:13:13;;;;;;;25.00;16.32;;;;;;;8.29;92.37;99751.15;1726443;83;26012;-68
2022/04/21 04:15:39;;;;;;;24.45;17.82;;;;;;;8.30;92.37;99766.19;1726452;83;25437;-68
2022/04/21 04:18:06;;;;;;;24.32;16.80;;;;;;;8.33;92.35;99772.32;1726299;83;25573;-68
2022/04/21 04:20:32;;;;;;;23.35;17.02;;;;;;;8.34;92.37;99781.20;1726425;83;25586;-68
2022/04/21 04:22:58;;;;;;;23.27;16.70;;;;;;;8.35;92.43;99781.45;1726357;83;27478;-68
2022/04/21 04:25:24;;;;;;;26.27;18.70;;;;;;;8.37;92.44;99780.59;1726292;83;25421;-70
2022/04/21 04:27:50;;;;;;;25.95;17.30;;;;;;;8.39;92.44;99784.58;1726400;82;25472;-70
2022/04/21 04:30:16;;;;;;;23.57;16.60;;;;;;;8.40;92.27;99790.20;1726328;83;34678;-69
2022/04/21 04:32:42;;;;;;;23.27;17.10;;;;;;;8.38;92.12;99782.19;1726492;83;25627;-71
2022/04/21 04:35:09;;;;;;;29.67;16.90;;;;;;;8.38;92.14;99787.02;1726429;83;28139;-71
2022/04/21 04:37:35;;;;;;;24.40;16.75;;;;;;;8.37;92.22;99788.11;1726253;83;27314;-70
2022/04/21 04:40:02;;;;;;;22.40;16.15;;;;;;;8.40;92.22;99792.11;1726319;83;29710;-70
2022/04/21 04:42:28;;;;;;;21.85;16.45;;;;;;;8.43;92.28;99795.58;1726330;83;25545;-70
2022/04/21 04:47:22;;;;;;;22.30;14.40;;;;;;;8.46;92.17;99791.45;1698763;83;27491;-70
2022/04/21 04:49:48;;;;;;;20.77;15.15;;;;;;;8.45;92.09;99793.36;1726299;83;25556;-70
2022/04/21 04:52:14;;;;;;;21.27;15.78;;;;;;;8.46;92.02;99794.94;1726306;83;30029;-70
2022/04/21 04:54:40;;;;;;;24.50;15.72;;;;;;;8.47;92.05;99791.16;1726329;83;34849;-70
2022/04/21 04:57:06;;;;;;;20.92;15.18;;;;;;;8.48;92.02;99795.45;1726417;83;32324;-71
2022/04/21 04:59:32;;;;;;;24.40;16.57;;;;;;;8.49;91.93;99795.67;1726376;82;27758;-71
2022/04/21 05:01:59;;;;;;;26.75;17.65;;;;;;;8.47;91.80;99790.36;1726275;83;25871;-71
2022/04/21 05:04:25;;;;;;;29.77;21.48;;;;;;;8.49;91.83;99795.67;1732347;82;25494;-70
2022/04/21 05:06:55;;;;;;;20.77;15.23;;;;;;;8.49;91.73;99794.89;1737791;82;26154;-70
2022/04/21 05:09:23;;;;;;;20.75;14.80;;;;;;;8.48;91.71;99788.72;1738009;82;25628;-70
2022/04/21 05:11:52;;;;;;;23.77;15.03;;;;;;;8.48;91.68;99802.72;1737882;82;27482;-69
2022/04/21 05:14:20;;;;;;;;;;;;;;;8.49;91.68;99797.59;1740369;82;25717;-70
2022/04/21 05:16:46;;;;;;;19.87;14.58;;;;;;;8.49;91.66;99799.72;1737894;82;25579;-73
2022/04/21 05:19:16;;;;;;;20.27;14.50;;;;;;;8.47;91.59;99800.59;1737783;82;25698;-72
2022/04/21 05:21:44;;;;;;;;;;;;;;;8.48;91.57;99799.49;1740474;82;25401;-74
2022/04/21 05:24:12;;;;;;;22.55;15.25;;;;;;;8.47;91.70;99800.59;1737807;82;27471;-70
2022/04/21 05:26:43;;;;;;;23.05;15.38;;;;;;;8.47;91.79;99797.89;1737844;82;25420;-71
2022/04/21 05:31:58;;;;;;;24.82;18.10;;;;;;;8.48;91.85;99800.84;1737848;82;25518;-71
2022/04/21 05:34:26;;;;;;;24.92;17.55;;;;;;;8.51;91.84;99807.50;1737971;82;25587;-72
2022/04/21 05:36:54;;;;;;;26.73;18.32;;;;;;;8.49;91.67;99805.67;1737857;82;27526;-71
2022/04/21 05:39:21;;;;;;;26.70;19.52;;;;;;;8.49;91.64;99808.37;1737769;82;25464;-71
2022/04/21 05:41:48;;;;;;;26.23;18.12;;;;;;;8.50;91.68;99810.76;1737893;82;25428;-71
2022/04/21 05:44:16;;;;;;;22.35;17.15;;;;;;;8.49;91.59;99807.02;1708603;82;25576;-72
2022/04/21 05:46:43;;;;;;;22.60;16.57;;;;;;;8.48;91.58;99807.58;1737981;82;25414;-71
2022/04/21 05:49:09;;;;;;;29.85;19.10;;;;;;;8.48;91.56;99809.45;1738014;82;27735;-71
2022/04/21 05:51:36;;;;;;;29.35;19.23;;;;;;;8.47;91.61;99801.94;1737915;82;25650;-71
2022/04/21 05:54:06;;;;;;;21.27;14.78;;;;;;;8.49;91.85;99812.41;1738018;82;25481;-71
2022/04/21 05:56:33;;;;;;;;;;;;;;;8.52;92.05;99808.55;1740636;82;25715;-71
2022/04/21 05:59:00;;;;;;;18.05;13.93;;;;;;;8.53;92.01;99803.41;1738014;82;25467;-70
2022/04/21 06:01:26;;;;;;;22.58;15.30;;;;;;;8.53;92.00;99808.80;1738044;82;27533;-71
2022/04/21 06:03:52;;;;;;;17.82;14.10;;;;;;;8.56;92.24;99806.84;1737900;82;25402;-71
2022/04/21 06:06:19;;;;;;;17.40;13.45;;;;;;;8.60;92.27;99816.46;1738241;82;29807;-71
2022/04/21 06:08:46;;;;;;;16.27;13.20;;;;;;;8.62;92.16;99815.59;1738126;82;25483;-70
2022/04/21 06:11:14;;;;;;;17.25;13.53;;;;;;;8.62;91.97;99812.11;1738120;82;25436;-72
2022/04/21 06:13:42;;;;;;;17.50;14.33;;;;;;;8.63;91.95;99809.09;1738014;82;28191;-72
2022/04/21 06:16:10;;;;;;;15.45;12.37;;;;;;;8.62;91.79;99808.07;1738002;82;25654;-72
2022/04/21 06:18:38;;;;;;;19.02;13.88;;;;;;;8.64;91.91;99804.51;1737998;82;25611;-72
2022/04/21 06:21:09;;;;;;;17.65;13.68;;;;;;;8.67;92.10;99810.08;1738081;82;25703;-71
2022/04/21 06:23:35;;;;;;;19.25;13.85;;;;;;;8.70;92.24;99813.52;1738045;82;25444;-71
2022/04/21 06:26:03;;;;;;;20.60;14.43;;;;;;;8.73;92.26;99806.70;1738077;82;27310;-72
2022/04/21 06:28:30;;;;;;;19.23;14.93;;;;;;;8.79;92.75;99810.87;1737897;82;25457;-71
2022/04/21 06:30:56;;;;;;;20.15;14.55;;;;;;;8.83;92.55;99806.44;1738123;82;25590;-72
2022/04/21 06:33:23;;;;;;;19.15;14.68;;;;;;;8.90;92.59;99800.60;1737994;82;25585;-70
2022/04/21 06:35:49;;;;;;;18.27;15.05;;;;;;;8.93;92.57;99798.08;1738078;82;25740;-71
2022/04/21 06:38:15;;;;;;;22.27;15.80;;;;;;;9.01;92.74;99797.89;1738173;82;27520;-71
2022/04/21 06:40:42;;;;;;;20.02;15.32;;;;;;;9.04;92.72;99794.58;1738131;82;25733;-73
2022/04/21 06:48:42;;;;;;;25.43;18.70;;;;;;;9.17;92.37;99803.67;1768535;81;25360;-72
2022/04/21 06:51:09;;;;;;;19.52;15.95;;;;;;;9.24;92.52;99806.70;1768488;81;28059;-71
2022/04/21 06:53:35;;;;;;;18.23;14.78;;;;;;;9.26;92.16;99808.56;1768216;81;25617;-71
2022/04/21 06:56:02;;;;;;;23.45;16.57;;;;;;;9.27;92.10;99811.48;1768342;81;25441;-71
2022/04/21 06:58:29;;;;;;;24.12;17.20;;;;;;;9.26;91.83;99809.91;1768410;81;25655;-72
2022/04/21 07:00:55;;;;;;;20.10;14.75;;;;;;;9.29;91.84;99817.36;1768580;81;25621;-71
2022/04/21 07:03:21;;;;;;;19.98;14.98;;;;;;;9.31;91.89;99817.05;1738310;81;27469;-71
2022/04/21 07:05:51;;;;;;;20.02;14.98;;;;;;;9.36;92.10;99826.36;1754469;81;25392;-71
2022/04/21 07:08:17;;;;;;;19.23;14.15;;;;;;;9.37;91.88;99825.83;1752122;81;25600;-71
2022/04/21 07:10:43;;;;;;;16.52;13.30;;;;;;;9.38;91.71;99820.13;1752153;81;25544;-72
2022/04/21 07:13:11;;;;;;;16.55;13.50;;;;;;;9.39;91.60;99827.09;1752237;81;32422;-71
2022/04/21 07:15:40;;;;;;;15.63;12.53;;;;;;;9.37;91.25;99825.27;1752130;81;27534;-71
2022/04/21 07:18:08;;;;;;;14.50;12.35;;;;;;;9.37;91.27;99826.61;1720811;81;29635;-71
2022/04/21 07:20:34;;;;;;;15.98;13.32;;;;;;;9.41;91.31;99829.48;1710025;83;25722;-71
2022/04/21 07:23:04;;;;;;;16.02;13.35;;;;;;;9.41;91.46;99826.22;1710049;83;25560;-72
2022/04/21 07:25:30;;;;;;;13.98;11.45;;;;;;;9.44;91.55;99826.95;1710029;83;25427;-73
2022/04/21 07:27:58;;;;;;;14.68;11.38;;;;;;;9.44;91.36;99826.95;1718729;82;28458;-74
2022/04/21 07:30:30;;;;;;;15.38;12.25;;;;;;;9.47;91.35;99820.15;1707459;84;25707;-73
2022/04/21 07:32:56;;;;;;;13.80;11.18;;;;;;;9.53;91.76;99817.53;1705827;84;25584;-71
2022/04/21 07:35:23;;;;;;;16.70;11.48;;;;;;;9.57;91.57;99816.34;1708886;84;26341;-71
2022/04/21 07:37:49;;;;;;;17.20;11.78;;;;;;;9.59;91.53;99816.84;1709188;84;25457;-71
2022/04/21 07:40:15;;;;;;;18.40;14.33;;;;;;;9.61;91.59;99822.72;1709209;83;27575;-71
2022/04/21 07:42:44;;;;;;;16.40;12.43;;;;;;;9.65;91.48;99820.97;1709067;83;25669;-71
2022/04/21 07:45:09;;;;;;;13.98;11.33;;;;;;;9.67;91.55;99820.92;1708885;84;25511;-71
2022/04/21 07:47:35;;;;;;;18.23;11.73;;;;;;;9.73;91.68;99820.20;1709180;83;25629;-71
2022/04/21 07:50:02;;;;;;;17.82;11.90;;;;;;;9.79;91.70;99812.20;1709083;84;32439;-71
2022/04/21 07:55:24;;;;;;;13.72;11.12;;;;;;;9.94;92.21;99814.98;1709178;84;25335;-71
2022/04/21 07:57:57;;;;;;;13.58;10.63;;;;;;;10.03;92.13;99815.81;1709199;84;25411;-71
2022/04/21 08:00:24;;;;;;;15.28;11.60;;;;;;;10.13;91.79;99820.66;1709285;84;25486;-71
2022/04/21 08:02:52;;;;;;;13.38;10.28;;;;;;;10.21;91.73;99821.22;1709268;83;25483;-71
2022/04/21 08:05:21;;;;;;;12.80;10.30;;;;;;;10.28;91.62;99822.34;1725555;81;27584;-69
2022/04/21 08:07:49;;;;;;;12.80;10.13;;;;;;;10.36;91.72;99814.58;1741107;81;25421;-70
2022/04/21 08:10:16;;;;;;;13.38;11.00;;;;;;;10.39;90.97;99814.73;1741067;82;25461;-70
2022/04/21 08:12:49;;;;;;;14.68;10.78;;;;;;;10.43;90.81;99816.23;1728709;83;25594;-70
2022/04/21 08:15:26;;;;;;;12.10;10.55;;;;;;;10.40;90.15;99819.57;1732197;82;25155;-70
2022/04/21 08:17:56;;;;;;;15.88;10.55;;;;;;;10.46;90.76;99818.30;1730162;82;27463;-70
2022/04/21 08:20:24;;;;;;;13.90;10.28;;;;;;;10.57;91.17;99818.22;1740592;82;25462;-72
2022/04/21 08:22:51;;;;;;;23.02;15.18;;;;;;;10.63;91.01;99810.16;1740539;82;25616;-72
2022/04/21 08:33:35;;;;;;;11.75;9.33;;;;;;;10.90;89.92;99814.97;1740434;82;25535;-72
2022/04/21 08:36:02;;;;;;;14.33;10.05;;;;;;;10.95;89.70;99814.02;1740625;82;25604;-71
2022/04/21 08:38:30;;;;;;;14.95;9.80;;;;;;;10.97;89.38;99811.20;1740436;81;26088;-72
2022/04/21 08:41:00;;;;;;;13.00;10.72;;;;;;;11.00;89.37;99815.98;1740523;82;25584;-71
2022/04/21 08:43:28;;;;;;;14.33;9.98;;;;;;;11.10;89.95;99814.84;1740497;81;27658;-71
2022/04/21 08:45:56;;;;;;;15.18;9.43;;;;;;;11.23;90.09;99808.17;1740467;81;25631;-70
2022/04/21 08:48:25;;;;;;;13.22;10.48;;;;;;;11.33;90.27;99801.83;1740607;82;25575;-69
2022/04/21 08:50:52;;;;;;;12.37;9.43;;;;;;;11.45;89.95;99805.20;1740410;81;25646;-70
2022/04/21 08:53:24;;;;;;;11.80;9.13;;;;;;;11.58;90.35;99799.33;1740490;82;25786;-70
2022/04/21 08:55:53;;;;;;;12.45;9.23;;;;;;;11.71;89.29;99792.06;1740521;82;27648;-71
2022/04/21 08:58:20;;;;;;;12.35;9.25;;;;;;;11.82;89.83;99791.92;1723316;82;26681;-70
2022/04/21 09:00:47;;;;;;;11.45;9.45;;;;;;;11.98;89.69;99784.02;1740770;82;25549;-71
2022/04/21 09:03:15;;;;;;;12.03;9.20;;;;;;;12.14;89.88;99792.37;1740441;82;25656;-71
2022/04/21 09:05:41;;;;;;;16.60;10.72;;;;;;;12.26;88.82;99796.48;1740408;81;25463;-70
2022/04/21 09:08:28;;;;;;;12.63;9.03;;;;;;;12.27;87.58;99792.63;1740508;82;27594;-70
2022/04/21 09:11:10;;;;;;;13.45;8.78;;;;;;;12.30;87.37;99786.55;1740441;82;25481;-72
2022/04/21 09:13:47;;;;;;;10.53;8.70;;;;;;;12.42;87.37;99789.09;1724887;82;25574;-71
2022/04/21 09:16:14;;;;;;;10.93;7.85;;;;;;;12.52;87.24;99792.17;1739397;82;25668;-71
2022/04/21 09:18:51;;;;;;;11.65;8.25;;;;;;;12.61;86.67;99785.88;1740700;81;25425;-71
2022/04/21 09:21:16;;;;;;;10.55;8.35;;;;;;;12.66;86.60;99789.16;1739534;82;27568;-71
2022/04/21 09:23:45;;;;;;;12.13;8.90;;;;;;;12.67;85.64;99789.97;1740802;82;25684;-72
2022/04/21 09:26:20;;;;;;;12.05;9.00;;;;;;;12.78;85.77;99803.33;1740659;82;25575;-72
2022/04/21 09:28:57;;;;;;;11.90;8.40;;;;;;;12.72;85.30;99789.76;1724499;82;25579;-72
2022/04/21 09:31:27;;;;;;;10.20;7.95;;;;;;;12.72;84.45;99795.19;1740783;82;25603;-71
2022/04/21 09:33:55;;;;;;;11.33;9.18;;;;;;;12.67;83.85;99791.33;1740805;82;27535;-71
2022/04/21 09:36:22;;;;;;;11.80;8.60;;;;;;;12.66;83.79;99795.94;1740791;82;25387;-71
2022/04/21 09:39:01;;;;;;;19.30;13.60;;;;;;;12.67;83.70;99792.69;1740640;82;25423;-71
2022/04/21 09:41:30;;;;;;;10.00;7.85;;;;;;;12.62;83.00;99796.39;1740629;81;25401;-72
2022/04/21 09:46:07;;;;;;;;;;;;;;;12.61;82.85;99798.86;1743337;81;25372;-71
2022/04/21 09:46:35;;;;;;;12.13;7.60;;;;;;;12.57;82.92;99799.31;1742095;81;27553;-72
2022/04/21 09:49:01;;;;;;;13.55;9.05;;;;;;;12.58;83.13;99791.95;1740558;82;25825;-70
2022/04/21 09:51:29;;;;;;;14.70;8.73;;;;;;;12.59;83.08;99794.34;1740679;82;25457;-70
2022/04/21 09:54:04;;;;;;;12.25;8.75;;;;;;;12.61;83.15;99791.30;1739209;82;25477;-70
2022/04/21 09:56:34;;;;;;;12.15;8.33;;;;;;;12.63;82.85;99795.82;1740264;82;25722;-70
2022/04/21 09:59:08;;;;;;;11.73;8.50;;;;;;;12.61;82.53;99792.08;1740370;82;28180;-70
2022/04/21 10:01:39;;;;;;;11.78;8.85;;;;;;;12.61;82.50;99793.44;1740158;82;26088;-68
2022/04/21 10:04:12;;;;;;;9.98;7.95;;;;;;;12.59;82.34;99799.77;1739797;82;25697;-69
2022/04/21 10:06:43;;;;;;;10.13;8.45;;;;;;;12.58;82.18;99791.42;1740150;81;25609;-69
2022/04/21 10:09:13;;;;;;;12.30;8.55;;;;;;;12.55;82.03;99789.37;1740111;82;25641;-69
2022/04/21 10:11:42;;;;;;;9.48;8.25;;;;;;;12.56;82.00;99795.58;1740226;81;28220;-69
2022/04/21 10:14:13;;;;;;;11.48;8.73;;;;;;;12.54;81.80;99789.70;1740189;82;26174;-69
2022/04/21 10:16:42;;;;;;;8.68;7.53;;;;;;;12.54;81.75;99791.05;1740106;81;25658;-69
2022/04/21 10:19:11;;;;;;;9.45;7.92;;;;;;;12.54;81.19;99793.77;1740371;82;25639;-69
2022/04/21 10:21:48;;;;;;;8.73;7.83;;;;;;;12.47;80.58;99792.38;1740492;82;25611;-70
2022/04/21 10:24:24;;;;;;;9.83;8.40;;;;;;;12.49;81.09;99792.05;1739764;82;28265;-69
2022/04/21 10:26:52;;;;;;;12.33;8.18;;;;;;;12.57;81.46;99795.25;1740352;82;26059;-69
2022/04/21 10:29:22;;;;;;;12.18;7.75;;;;;;;12.67;81.70;99789.97;1740239;81;25584;-69
2022/04/21 10:31:57;;;;;;;14.10;8.43;;;;;;;12.80;81.46;99790.20;1740412;82;25650;-69
2022/04/21 10:34:45;;;;;;;9.85;8.28;;;;;;;12.91;81.09;99789.23;1739955;82;25577;-69
2022/04/21 10:37:20;;;;;;;11.48;7.97;;;;;;;12.96;80.02;99778.16;1740363;82;27524;-69
2022/04/21 10:40:10;;;;;;;11.33;8.80;;;;;;;13.10;80.96;99778.40;1740336;82;25580;-69
2022/04/21 10:42:55;;;;;;;11.25;7.70;;;;;;;13.27;81.08;99775.45;1740365;82;25761;-70
2022/04/21 10:45:32;;;;;;;9.55;8.00;;;;;;;13.46;80.50;99777.63;1740003;82;25558;-70
2022/04/21 10:48:12;;;;;;;13.72;8.10;;;;;;;13.58;80.33;99777.61;1740392;82;25470;-70
2022/04/21 10:50:42;;;;;;;13.93;8.38;;;;;;;13.71;79.70;99769.46;1740345;81;27464;-70
2022/04/21 10:58:47;;;;;;;12.05;7.58;;;;;;;14.23;78.49;99774.63;1740507;82;25623;-70
2022/04/21 11:01:31;;;;;;;12.98;8.23;;;;;;;14.37;77.47;99775.05;1740107;81;25294;-69
2022/04/21 11:04:14;;;;;;;19.02;14.00;;;;;;;14.45;76.79;99776.80;1740149;81;28416;-70
2022/04/21 11:06:51;;;;;;;12.13;9.20;;;;;;;14.64;76.86;99774.02;1739845;81;25883;-70
2022/04/21 11:09:41;;;;;;;12.73;8.10;;;;;;;14.85;76.21;99772.44;1724236;82;25604;-70
2022/04/21 11:12:12;;;;;;;9.50;7.90;;;;;;;15.07;75.70;99771.03;1740223;82;25496;-70
2022/04/21 11:14:39;;;;;;;11.20;7.60;;;;;;;15.27;75.01;99775.42;1723287;82;25660;-70
2022/04/21 11:17:08;;;;;;;10.68;8.13;;;;;;;15.41;74.23;99776.88;1740253;82;27442;-70
2022/04/21 11:19:40;;;;;;;9.88;7.17;;;;;;;15.48;73.37;99780.56;1740224;82;25600;-70
2022/04/21 11:22:09;;;;;;;9.08;7.15;;;;;;;15.44;71.62;99777.53;1740028;81;25666;-68
2022/04/21 11:25:03;;;;;;;10.27;7.13;;;;;;;15.37;71.84;99776.80;1740391;82;25654;-68
2022/04/21 11:27:32;;;;;;;10.65;7.85;;;;;;;15.34;71.03;99780.25;1740402;82;25415;-70
2022/04/21 11:30:07;;;;;;;9.85;7.75;;;;;;;15.25;70.71;99783.71;1723187;82;27647;-72
2022/04/21 11:32:34;;;;;;;7.30;6.33;;;;;;;15.19;70.83;99786.47;1740485;81;25699;-69
2022/04/21 11:35:11;;;;;;;9.88;7.25;;;;;;;15.11;70.06;99787.66;1740263;81;25499;-69
2022/04/21 11:37:53;;;;;;;11.50;7.05;;;;;;;15.01;70.59;99787.41;1740004;82;25595;-68
2022/04/21 11:40:36;;;;;;;9.20;6.72;;;;;;;14.96;70.25;99784.95;1737295;82;25746;-69
2022/04/21 11:43:08;;;;;;;10.38;7.15;;;;;;;14.84;69.99;99783.88;1740164;82;27462;-70
2022/04/21 11:45:37;;;;;;;7.87;6.87;;;;;;;14.77;69.50;99781.55;1739274;82;25474;-71
2022/04/21 11:48:13;;;;;;;9.58;7.78;;;;;;;14.57;69.00;99786.28;1740211;82;25560;-70
2022/04/21 11:50:45;;;;;;;9.68;6.87;;;;;;;14.49;69.32;99783.69;1740305;82;25687;-70
2022/04/21 11:53:18;;;;;;;10.18;6.85;;;;;;;14.41;69.32;99781.94;1740021;82;25630;-69
2022/04/21 11:55:43;;;;;;;13.43;7.87;;;;;;;14.34;69.91;99782.53;1740244;82;27491;-69
2022/04/21 11:58:10;;;;;;;11.40;7.20;;;;;;;14.31;69.22;99784.00;1740326;82;26058;-69
2022/04/21 12:06:31;;;;;;;9.78;6.92;;;;;;;14.14;69.59;99773.42;1739857;81;25605;-69
2022/04/21 12:08:59;;;;;;;9.85;7.05;;;;;;;14.13;69.88;99776.72;1725902;82;28065;-70
2022/04/21 12:11:27;;;;;;;9.88;7.83;;;;;;;14.15;69.85;99775.80;1723042;82;25633;-70
2022/04/21 12:13:53;;;;;;;12.05;7.33;;;;;;;14.20;70.16;99777.48;1739934;81;25465;-70
2022/04/21 12:16:44;;;;;;;8.28;7.40;;;;;;;14.20;69.37;99781.57;1740250;81;25500;-71
2022/04/21 12:19:42;;;;;;;14.93;7.83;;;;;;;14.19;69.08;99779.97;1740269;81;25711;-69
2022/04/21 12:22:13;;;;;;;10.10;7.10;;;;;;;14.16;68.94;99777.36;1740093;82;27914;-70
2022/04/21 12:24:51;;;;;;;9.33;7.37;;;;;;;14.22;69.38;99782.01;1740122;81;25849;-70
2022/04/21 12:27:28;;;;;;;12.90;8.10;;;;;;;14.24;69.09;99781.09;1740613;81;25641;-69
2022/04/21 12:30:15;;;;;;;11.70;8.23;;;;;;;14.26;69.33;99777.45;1739898;82;25599;-70
2022/04/21 12:32:52;;;;;;;8.55;7.22;;;;;;;14.34;69.23;99775.16;1740321;81;25649;-69